sensor_id;sensor_type;location;lat;lon;timestamp;pressure;altitude;pressure_sealevel;temperature;humidity
44992;BME280;56865;51.618;7.406;2024-03-06T00:04:50;100954.75;;;13.38;100.00
44992;BME280;56865;51.618;7.406;2024-03-06T00:07:26;100963.81;;;13.63;100.00
44992;BME280;56865;51.618;7.406;2024-03-06T00:10:03;100966.72;;;13.82;100.00
44992;BME280;56865;51.618;7.406;2024-03-06T00:13:09;100967.50;;;13.78;100.00
44992;BME280;56865;51.618;7.406;2024-03-06T01:37:36;101019.53;;;13.75;100.00
44992;BME280;56865;51.618;7.406;2024-03-06T02:18:10;101041.59;;;13.30;100.00
44992;BME280;56865;51.618;7.406;2024-03-06T02:27:18;101048.63;;;13.38;100.00
44992;BME280;56865;51.618;7.406;2024-03-06T02:30:37;101048.63;;;13.38;100.00
44992;BME280;56865;51.618;7.406;2024-03-06T04:19:08;101090.47;;;11.75;100.00
44992;BME280;56865;51.618;7.406;2024-03-06T04:28:23;101100.66;;;12.02;100.00
44992;BME280;56865;51.618;7.406;2024-03-06T11:33:03;101504.56;;;20.16;100.00
44992;BME280;56865;51.618;7.406;2024-03-06T12:49:00;101518.75;;;22.16;100.00
44992;BME280;56865;51.618;7.406;2024-03-06T12:51:33;101520.72;;;22.91;100.00
44992;BME280;56865;51.618;7.406;2024-03-06T12:54:03;101520.41;;;22.22;100.00
44992;BME280;56865;51.618;7.406;2024-03-06T12:56:33;101519.19;;;22.69;100.00
44992;BME280;56865;51.618;7.406;2024-03-06T12:59:04;101522.03;;;22.40;100.00
44992;BME280;56865;51.618;7.406;2024-03-06T13:01:38;101521.41;;;23.05;100.00
44992;BME280;56865;51.618;7.406;2024-03-06T13:04:17;101515.16;;;22.33;100.00
44992;BME280;56865;51.618;7.406;2024-03-06T13:06:48;101519.31;;;22.54;100.00
44992;BME280;56865;51.618;7.406;2024-03-06T13:09:27;101513.22;;;22.60;100.00
44992;BME280;56865;51.618;7.406;2024-03-06T13:11:57;101516.88;;;23.27;100.00
44992;BME280;56865;51.618;7.406;2024-03-06T13:14:27;101517.63;;;22.50;100.00
44992;BME280;56865;51.618;7.406;2024-03-06T13:16:57;101522.09;;;22.29;100.00
44992;BME280;56865;51.618;7.406;2024-03-06T13:19:30;101517.84;;;23.14;100.00
44992;BME280;56865;51.618;7.406;2024-03-06T13:22:05;101515.84;;;23.42;100.00
44992;BME280;56865;51.618;7.406;2024-03-06T13:24:35;101508.72;;;22.74;100.00
44992;BME280;56865;51.618;7.406;2024-03-06T13:27:09;101518.09;;;22.92;100.00
44992;BME280;56865;51.618;7.406;2024-03-06T13:29:38;101518.22;;;23.58;100.00
44992;BME280;56865;51.618;7.406;2024-03-06T13:32:08;101523.31;;;23.68;100.00
44992;BME280;56865;51.618;7.406;2024-03-06T13:34:44;101522.53;;;22.81;100.00
44992;BME280;56865;51.618;7.406;2024-03-06T13:37:14;101522.19;;;23.16;100.00
44992;BME280;56865;51.618;7.406;2024-03-06T13:39:44;101516.75;;;22.51;100.00
44992;BME280;56865;51.618;7.406;2024-03-06T13:42:14;101519.59;;;23.13;100.00
44992;BME280;56865;51.618;7.406;2024-03-06T13:44:44;101522.19;;;23.15;100.00
44992;BME280;56865;51.618;7.406;2024-03-06T13:47:15;101516.81;;;23.33;100.00
44992;BME280;56865;51.618;7.406;2024-03-06T13:49:48;101524.13;;;22.94;100.00
44992;BME280;56865;51.618;7.406;2024-03-06T13:52:22;101522.88;;;23.32;100.00
44992;BME280;56865;51.618;7.406;2024-03-06T13:54:52;101519.34;;;24.04;100.00
44992;BME280;56865;51.618;7.406;2024-03-06T13:57:31;101530.84;;;23.18;98.47
44992;BME280;56865;51.618;7.406;2024-03-06T14:00:02;101517.97;;;23.03;100.00
44992;BME280;56865;51.618;7.406;2024-03-06T14:02:32;101528.75;;;23.50;100.00
44992;BME280;56865;51.618;7.406;2024-03-06T14:05:11;101527.44;;;23.09;97.18
44992;BME280;56865;51.618;7.406;2024-03-06T14:07:41;101522.94;;;23.28;96.23
44992;BME280;56865;51.618;7.406;2024-03-06T14:10:11;101519.19;;;23.49;100.00
44992;BME280;56865;51.618;7.406;2024-03-06T14:12:43;101520.84;;;23.54;100.00
44992;BME280;56865;51.618;7.406;2024-03-06T14:15:12;101525.06;;;23.63;94.96
44992;BME280;56865;51.618;7.406;2024-03-06T14:17:51;101523.63;;;23.41;95.53
44992;BME280;56865;51.618;7.406;2024-03-06T14:20:24;101520.97;;;22.61;94.59
44992;BME280;56865;51.618;7.406;2024-03-06T14:22:54;101522.31;;;23.02;99.46
44992;BME280;56865;51.618;7.406;2024-03-06T14:25:24;101520.59;;;23.01;100.00
44992;BME280;56865;51.618;7.406;2024-03-06T14:27:55;101515.56;;;22.86;100.00
44992;BME280;56865;51.618;7.406;2024-03-06T14:30:34;101533.75;;;22.86;100.00
44992;BME280;56865;51.618;7.406;2024-03-06T14:33:15;101517.63;;;22.53;100.00
44992;BME280;56865;51.618;7.406;2024-03-06T14:35:54;101528.94;;;22.46;100.00
44992;BME280;56865;51.618;7.406;2024-03-06T14:38:24;101526.75;;;21.78;100.00
44992;BME280;56865;51.618;7.406;2024-03-06T14:41:11;101532.03;;;21.59;100.00
44992;BME280;56865;51.618;7.406;2024-03-06T14:43:42;101526.88;;;21.47;100.00
44992;BME280;56865;51.618;7.406;2024-03-06T14:46:12;101529.50;;;21.36;100.00
44992;BME280;56865;51.618;7.406;2024-03-06T14:48:41;101530.41;;;21.22;100.00
44992;BME280;56865;51.618;7.406;2024-03-06T14:51:21;101524.41;;;21.06;100.00
44992;BME280;56865;51.618;7.406;2024-03-06T14:53:54;101524.47;;;20.83;100.00
44992;BME280;56865;51.618;7.406;2024-03-06T14:56:26;101525.31;;;20.84;100.00
44992;BME280;56865;51.618;7.406;2024-03-06T14:59:06;101527.88;;;20.57;100.00
44992;BME280;56865;51.618;7.406;2024-03-06T15:01:38;101532.22;;;20.63;100.00
44992;BME280;56865;51.618;7.406;2024-03-06T15:04:08;101521.81;;;20.13;100.00
44992;BME280;56865;51.618;7.406;2024-03-06T15:06:40;101527.03;;;20.38;100.00
44992;BME280;56865;51.618;7.406;2024-03-06T15:09:14;101527.81;;;19.83;100.00
44992;BME280;56865;51.618;7.406;2024-03-06T15:11:48;101532.13;;;19.93;100.00
44992;BME280;56865;51.618;7.406;2024-03-06T15:14:18;101530.25;;;19.46;100.00
44992;BME280;56865;51.618;7.406;2024-03-06T15:16:49;101533.72;;;19.59;100.00
44992;BME280;56865;51.618;7.406;2024-03-06T15:19:18;101533.84;;;19.90;100.00
44992;BME280;56865;51.618;7.406;2024-03-06T15:21:51;101535.41;;;19.47;100.00
44992;BME280;56865;51.618;7.406;2024-03-06T15:24:20;101539.84;;;19.75;100.00
44992;BME280;56865;51.618;7.406;2024-03-06T15:26:50;101538.06;;;19.68;100.00
44992;BME280;56865;51.618;7.406;2024-03-06T15:29:21;101534.56;;;19.50;100.00
44992;BME280;56865;51.618;7.406;2024-03-06T15:31:48;101528.59;;;19.71;100.00
44992;BME280;56865;51.618;7.406;2024-03-06T15:34:18;101536.97;;;19.17;100.00
44992;BME280;56865;51.618;7.406;2024-03-06T15:36:47;101528.22;;;18.91;100.00
44992;BME280;56865;51.618;7.406;2024-03-06T15:39:21;101533.16;;;18.69;100.00
44992;BME280;56865;51.618;7.406;2024-03-06T15:41:51;101528.47;;;18.20;100.00
44992;BME280;56865;51.618;7.406;2024-03-06T15:44:22;101532.84;;;18.29;100.00
44992;BME280;56865;51.618;7.406;2024-03-06T15:46:52;101533.47;;;18.06;100.00
44992;BME280;56865;51.618;7.406;2024-03-06T15:49:31;101537.25;;;18.42;100.00
44992;BME280;56865;51.618;7.406;2024-03-06T15:52:01;101545.22;;;18.68;100.00
44992;BME280;56865;51.618;7.406;2024-03-06T15:54:33;101542.41;;;18.39;100.00
44992;BME280;56865;51.618;7.406;2024-03-06T15:57:04;101553.69;;;17.72;100.00
44992;BME280;56865;51.618;7.406;2024-03-06T15:59:34;101544.03;;;18.32;100.00
44992;BME280;56865;51.618;7.406;2024-03-06T16:02:07;101550.59;;;17.98;100.00
44992;BME280;56865;51.618;7.406;2024-03-06T16:04:52;101557.34;;;17.90;100.00
44992;BME280;56865;51.618;7.406;2024-03-06T16:07:27;101558.91;;;17.78;100.00
